createdAt,value
2023-05-15T00:02:30.141Z,11.96
2023-05-15T00:05:36.302Z,11.94
2023-05-15T00:08:42.515Z,11.90
2023-05-15T00:11:48.420Z,11.86
2023-05-15T00:14:56.041Z,11.86
2023-05-15T00:18:02.054Z,11.85
2023-05-15T00:21:08.059Z,12.00
2023-05-15T00:24:14.246Z,12.01
2023-05-15T00:27:20.317Z,11.96
2023-05-15T00:30:28.016Z,11.86
2023-05-15T00:33:34.258Z,11.90
2023-05-15T00:36:40.513Z,11.64
2023-05-15T00:39:46.649Z,11.77
2023-05-15T00:42:53.636Z,11.95
2023-05-15T00:46:02.412Z,11.92
2023-05-15T00:49:13.673Z,11.87
2023-05-15T00:52:19.934Z,11.95
2023-05-15T00:55:27.662Z,11.76
2023-05-15T00:58:35.078Z,11.84
2023-05-15T01:01:45.385Z,11.88
2023-05-15T01:04:51.891Z,11.84
2023-05-15T01:08:09.818Z,11.73
2023-05-15T01:11:17.311Z,11.79
2023-05-15T01:14:23.602Z,11.81
2023-05-15T01:17:31.292Z,11.64
2023-05-15T01:20:59.674Z,11.38
2023-05-15T01:24:19.689Z,11.49
2023-05-15T01:27:31.769Z,11.46
2023-05-15T01:30:41.994Z,11.35
2023-05-15T01:33:52.688Z,11.61
2023-05-15T01:37:04.368Z,11.46
2023-05-15T01:40:13.185Z,11.29
2023-05-15T01:43:29.463Z,11.34
2023-05-15T01:46:39.447Z,11.55
2023-05-15T01:49:46.745Z,11.42
2023-05-15T01:52:57.798Z,11.44
2023-05-15T01:56:08.250Z,11.42
2023-05-15T01:59:17.867Z,11.33
2023-05-15T02:02:25.221Z,10.99
2023-05-15T02:05:32.366Z,11.09
2023-05-15T02:08:39.192Z,11.39
2023-05-15T02:11:46.009Z,11.39
2023-05-15T02:14:54.158Z,11.16
2023-05-15T02:18:00.672Z,11.43
2023-05-15T02:21:06.972Z,11.24
2023-05-15T02:24:13.170Z,11.23
2023-05-15T02:27:23.835Z,11.48
2023-05-15T02:30:39.636Z,11.52
2023-05-15T02:33:53.810Z,11.38
2023-05-15T02:37:02.460Z,11.37
2023-05-15T02:40:12.844Z,11.65
2023-05-15T02:43:20.226Z,11.55
2023-05-15T02:46:29.173Z,11.57
2023-05-15T02:49:36.935Z,11.54
2023-05-15T02:52:42.952Z,11.66
2023-05-15T02:55:49.433Z,11.57
2023-05-15T02:58:55.565Z,11.43
2023-05-15T03:02:03.905Z,11.67
2023-05-15T03:05:10.892Z,11.45
2023-05-15T03:08:17.117Z,11.48
2023-05-15T03:11:23.607Z,11.43
2023-05-15T03:14:30.184Z,11.46
2023-05-15T03:17:37.801Z,11.46
2023-05-15T03:20:44.465Z,11.67
2023-05-15T03:23:50.834Z,11.83
2023-05-15T03:26:57.174Z,11.69
2023-05-15T03:30:03.408Z,11.88
2023-05-15T03:33:10.900Z,11.79
2023-05-15T03:36:17.240Z,11.74
2023-05-15T03:39:23.503Z,11.66
2023-05-15T03:42:29.604Z,11.81
2023-05-15T03:45:35.986Z,11.94
2023-05-15T03:48:43.661Z,11.82
2023-05-15T03:51:49.975Z,11.90
2023-05-15T03:54:56.044Z,11.98
2023-05-15T03:58:02.119Z,11.96
2023-05-15T04:01:08.242Z,11.97
2023-05-15T04:04:15.718Z,12.09
2023-05-15T04:07:21.846Z,12.13
2023-05-15T04:10:28.038Z,12.04
2023-05-15T04:13:34.189Z,11.97
2023-05-15T04:16:40.941Z,11.84
2023-05-15T04:19:48.793Z,11.84
2023-05-15T04:22:55.273Z,11.84
2023-05-15T04:26:01.583Z,12.21
2023-05-15T04:29:07.782Z,12.13
2023-05-15T04:32:14.518Z,12.20
2023-05-15T04:35:22.433Z,12.35
2023-05-15T04:38:28.964Z,12.37
2023-05-15T04:41:34.856Z,12.23
2023-05-15T04:44:41.181Z,12.34
2023-05-15T04:47:47.556Z,12.32
2023-05-15T04:50:55.159Z,12.42
2023-05-15T04:54:01.513Z,12.55
2023-05-15T04:57:07.832Z,12.66
2023-05-15T05:00:15.823Z,12.48
2023-05-15T05:03:22.857Z,12.51
2023-05-15T05:06:30.821Z,12.67
2023-05-15T05:09:37.281Z,12.55
2023-05-15T05:12:43.761Z,12.80
2023-05-15T05:15:49.919Z,12.89
2023-05-15T05:18:56.056Z,12.82
2023-05-15T05:22:05.463Z,13.27
2023-05-15T05:25:12.273Z,13.31
2023-05-15T05:28:18.625Z,13.35
2023-05-15T05:31:25.076Z,13.41
2023-05-15T05:34:31.026Z,13.19
2023-05-15T05:37:40.835Z,13.16
2023-05-15T05:40:47.391Z,13.16
2023-05-15T05:43:53.636Z,13.17
2023-05-15T05:47:00.057Z,13.20
2023-05-15T05:50:07.350Z,13.19
2023-05-15T05:53:14.788Z,13.30
2023-05-15T05:56:21.870Z,13.42
2023-05-15T05:59:27.856Z,13.80
2023-05-15T06:02:33.879Z,13.59
2023-05-15T06:05:39.984Z,13.78
2023-05-15T06:08:47.369Z,13.74
2023-05-15T06:11:53.462Z,13.83
2023-05-15T06:14:59.660Z,13.67
2023-05-15T06:18:06.173Z,13.71
2023-05-15T06:21:12.590Z,13.92
2023-05-15T06:24:20.390Z,13.78
2023-05-15T06:27:27.670Z,13.86
2023-05-15T06:30:34.091Z,13.83
2023-05-15T06:33:40.245Z,13.74
2023-05-15T06:36:46.860Z,13.63
2023-05-15T06:39:54.642Z,13.75
2023-05-15T06:43:00.970Z,13.74
2023-05-15T06:46:07.081Z,13.58
2023-05-15T06:49:13.361Z,13.64
2023-05-15T06:52:19.426Z,13.74
2023-05-15T06:55:26.888Z,13.72
2023-05-15T06:58:33.012Z,13.87
2023-05-15T07:01:39.355Z,13.77
2023-05-15T07:04:45.860Z,13.98
2023-05-15T07:07:52.167Z,14.36
2023-05-15T07:10:59.598Z,14.26
2023-05-15T07:14:06.826Z,14.37
2023-05-15T07:17:13.172Z,14.28
2023-05-15T07:20:19.262Z,14.38
2023-05-15T07:23:25.577Z,14.37
2023-05-15T07:26:41.026Z,14.46
2023-05-15T07:29:50.317Z,14.45
2023-05-15T07:32:56.364Z,14.43
2023-05-15T07:36:02.254Z,14.35
2023-05-15T07:39:08.492Z,14.35
2023-05-15T07:42:16.138Z,14.57
2023-05-15T07:45:22.640Z,14.29
2023-05-15T07:48:29.221Z,14.93
2023-05-15T07:51:35.165Z,14.79
2023-05-15T07:54:41.904Z,14.94
2023-05-15T07:57:53.500Z,14.71
2023-05-15T08:00:59.925Z,15.02
2023-05-15T08:04:09.927Z,15.42
2023-05-15T08:07:16.268Z,15.16
2023-05-15T08:10:22.552Z,15.14
2023-05-15T08:13:30.196Z,14.84
2023-05-15T08:16:36.571Z,15.33
2023-05-15T08:19:42.803Z,15.14
2023-05-15T08:22:49.156Z,15.16
2023-05-15T08:25:55.242Z,15.54
2023-05-15T08:29:03.165Z,15.36
2023-05-15T08:32:10.554Z,15.08
2023-05-15T08:35:17.128Z,15.35
2023-05-15T08:38:24.035Z,15.45
2023-05-15T08:41:40.615Z,15.80
2023-05-15T08:44:49.172Z,15.18
2023-05-15T08:47:55.703Z,15.60
2023-05-15T08:51:02.391Z,15.38
2023-05-15T08:54:08.753Z,15.61
2023-05-15T08:57:16.207Z,15.88
2023-05-15T09:00:24.327Z,16.00
2023-05-15T09:03:31.602Z,15.85
2023-05-15T09:06:38.759Z,16.35
2023-05-15T09:09:46.505Z,15.89
2023-05-15T09:12:53.513Z,16.29
2023-05-15T09:16:01.736Z,16.60
2023-05-15T09:19:08.804Z,16.55
2023-05-15T09:22:23.427Z,16.59
2023-05-15T09:25:38.695Z,17.22
2023-05-15T09:28:45.040Z,16.28
2023-05-15T09:31:53.000Z,17.04
2023-05-15T09:34:59.490Z,17.54
2023-05-15T09:38:09.719Z,17.38
2023-05-15T09:41:15.613Z,17.46
2023-05-15T09:44:25.968Z,17.46
2023-05-15T09:47:33.678Z,17.41
2023-05-15T09:50:41.093Z,17.48
2023-05-15T09:53:50.872Z,16.66
2023-05-15T09:56:57.365Z,17.46
2023-05-15T10:00:05.401Z,17.49
2023-05-15T10:03:13.663Z,16.89
2023-05-15T10:06:20.551Z,17.04
2023-05-15T10:09:32.355Z,16.87
2023-05-15T10:12:38.996Z,17.39
2023-05-15T10:15:49.929Z,17.38
2023-05-15T10:18:59.622Z,17.62
2023-05-15T10:22:06.582Z,17.37
2023-05-15T10:25:18.395Z,18.06
2023-05-15T10:28:25.769Z,18.09
2023-05-15T10:31:32.897Z,18.59
2023-05-15T10:34:40.853Z,18.35
2023-05-15T10:37:49.149Z,18.16
2023-05-15T10:41:12.955Z,17.49
2023-05-15T10:44:24.661Z,18.55
2023-05-15T10:47:31.992Z,18.74
2023-05-15T10:50:39.954Z,18.19
2023-05-15T10:53:46.486Z,18.26
2023-05-15T10:56:53.082Z,18.55
2023-05-15T10:59:59.796Z,17.73
2023-05-15T11:03:06.589Z,17.77
2023-05-15T11:06:14.594Z,18.17
2023-05-15T11:09:37.744Z,18.11
2023-05-15T11:13:00.353Z,18.25
2023-05-15T11:16:06.943Z,18.10
2023-05-15T11:19:23.778Z,18.52
2023-05-15T11:22:33.885Z,18.87
2023-05-15T11:25:40.718Z,19.37
2023-05-15T11:28:47.441Z,19.18
2023-05-15T11:31:53.546Z,19.52
2023-05-15T11:35:01.842Z,18.75
2023-05-15T11:38:15.866Z,19.69
2023-05-15T11:41:27.707Z,19.45
2023-05-15T11:44:34.422Z,19.45
2023-05-15T11:47:45.510Z,19.27
2023-05-15T11:50:53.919Z,19.66
2023-05-15T11:54:05.701Z,19.66
2023-05-15T11:57:13.424Z,18.91
2023-05-15T12:00:19.701Z,18.91
2023-05-15T12:03:27.499Z,19.17
2023-05-15T12:06:33.725Z,19.06
2023-05-15T12:09:41.773Z,19.02
2023-05-15T12:12:48.617Z,20.11
2023-05-15T12:15:57.026Z,20.16
2023-05-15T12:19:03.251Z,20.18
2023-05-15T12:22:09.468Z,20.22
2023-05-15T12:25:17.911Z,20.52
2023-05-15T12:28:23.870Z,20.44
2023-05-15T12:31:30.475Z,20.85
2023-05-15T12:34:37.156Z,20.39
2023-05-15T12:37:43.758Z,20.98
2023-05-15T12:40:53.729Z,20.88
2023-05-15T12:44:00.334Z,20.44
2023-05-15T12:47:07.084Z,20.84
2023-05-15T12:50:15.994Z,20.48
2023-05-15T12:53:23.325Z,20.82
2023-05-15T12:56:32.437Z,19.97
2023-05-15T12:59:40.268Z,20.29
2023-05-15T13:02:46.969Z,20.67
2023-05-15T13:05:53.300Z,20.77
2023-05-15T13:09:00.302Z,21.20
2023-05-15T13:12:08.176Z,20.13
2023-05-15T13:15:27.342Z,20.40
2023-05-15T13:18:33.391Z,20.83
2023-05-15T13:21:39.952Z,20.28
2023-05-15T13:24:50.121Z,19.86
2023-05-15T13:27:59.388Z,18.99
2023-05-15T13:31:06.303Z,19.50
2023-05-15T13:34:12.597Z,18.70
2023-05-15T13:37:18.965Z,19.43
2023-05-15T13:40:25.619Z,19.70
2023-05-15T13:43:33.188Z,20.58
2023-05-15T13:46:39.569Z,21.42
2023-05-15T13:49:46.766Z,19.79
2023-05-15T13:52:54.599Z,20.73
2023-05-15T13:56:01.112Z,21.12
2023-05-15T13:59:08.462Z,21.34
2023-05-15T14:02:14.709Z,20.79
2023-05-15T14:05:20.808Z,20.86
2023-05-15T14:08:26.973Z,20.47
2023-05-15T14:11:32.983Z,21.56
2023-05-15T14:14:40.459Z,20.90
2023-05-15T14:17:48.482Z,21.67
2023-05-15T14:20:55.274Z,22.57
2023-05-15T14:24:01.650Z,22.24
2023-05-15T14:27:08.239Z,22.45
2023-05-15T14:30:16.071Z,21.88
2023-05-15T14:33:25.215Z,21.89
2023-05-15T14:36:31.486Z,22.29
2023-05-15T14:39:37.932Z,22.05
2023-05-15T14:42:44.658Z,23.09
2023-05-15T14:45:52.757Z,22.35
2023-05-15T14:48:58.916Z,22.21
2023-05-15T14:52:05.748Z,21.95
2023-05-15T14:55:12.192Z,22.48
2023-05-15T14:58:18.204Z,22.91
2023-05-15T15:01:25.853Z,22.79
2023-05-15T15:04:34.548Z,22.77
2023-05-15T15:08:01.721Z,23.17
2023-05-15T15:11:08.134Z,22.21
2023-05-15T15:14:14.236Z,23.62
2023-05-15T15:17:21.756Z,22.17
2023-05-15T15:20:29.485Z,21.54
2023-05-15T15:23:35.938Z,22.04
2023-05-15T15:26:42.058Z,21.09
2023-05-15T15:29:48.241Z,20.76
2023-05-15T15:32:56.090Z,20.81
2023-05-15T15:36:02.202Z,20.66
2023-05-15T15:39:08.358Z,20.33
2023-05-15T15:42:14.980Z,20.19
2023-05-15T15:45:20.949Z,20.76
2023-05-15T15:48:28.256Z,20.59
2023-05-15T15:51:34.343Z,20.57
2023-05-15T15:54:46.880Z,20.64
2023-05-15T15:57:52.824Z,20.29
2023-05-15T16:00:59.083Z,20.53
2023-05-15T16:04:06.671Z,20.71
2023-05-15T16:07:12.913Z,20.19
2023-05-15T16:10:19.416Z,20.00
2023-05-15T16:13:25.672Z,20.11
2023-05-15T16:16:31.834Z,20.27
2023-05-15T16:19:39.188Z,20.17
2023-05-15T16:22:45.918Z,19.60
2023-05-15T16:25:52.367Z,19.21
2023-05-15T16:28:58.890Z,19.46
2023-05-15T16:32:05.079Z,19.60
2023-05-15T16:35:12.677Z,19.36
2023-05-15T16:38:19.044Z,19.18
2023-05-15T16:41:26.477Z,19.57
2023-05-15T16:44:32.945Z,19.41
2023-05-15T16:47:41.228Z,19.69
2023-05-15T16:50:49.255Z,19.54
2023-05-15T16:53:56.532Z,19.41
2023-05-15T16:57:02.794Z,19.42
2023-05-15T17:00:10.360Z,19.04
2023-05-15T17:03:17.584Z,19.02
2023-05-15T17:06:25.808Z,19.03
2023-05-15T17:09:32.894Z,18.58
2023-05-15T17:12:39.879Z,18.40
2023-05-15T17:15:47.327Z,18.18
2023-05-15T17:18:53.729Z,18.11
2023-05-15T17:22:01.879Z,18.07
2023-05-15T17:25:08.539Z,18.36
2023-05-15T17:28:14.690Z,17.58
2023-05-15T17:31:21.239Z,17.60
2023-05-15T17:34:27.996Z,17.82
2023-05-15T17:37:35.352Z,17.61
2023-05-15T17:40:41.502Z,17.57
2023-05-15T17:43:48.228Z,17.64
2023-05-15T17:46:54.148Z,17.56
2023-05-15T17:50:00.296Z,17.28
2023-05-15T17:53:08.131Z,17.56
2023-05-15T17:56:14.493Z,17.58
2023-05-15T17:59:20.984Z,17.47
2023-05-15T18:02:27.365Z,17.48
2023-05-15T18:05:33.465Z,17.42
2023-05-15T18:08:41.537Z,17.36
2023-05-15T18:11:49.699Z,17.22
2023-05-15T18:14:56.081Z,17.12
2023-05-15T18:18:02.421Z,17.06
2023-05-15T18:21:08.659Z,16.95
2023-05-15T18:24:16.292Z,16.81
2023-05-15T18:27:22.788Z,16.29
2023-05-15T18:30:29.028Z,16.30
2023-05-15T18:33:35.860Z,16.31
2023-05-15T18:36:42.625Z,16.30
2023-05-15T18:39:50.357Z,16.23
2023-05-15T18:42:57.040Z,16.04
2023-05-15T18:46:03.322Z,16.07
2023-05-15T18:49:09.590Z,16.21
2023-05-15T18:52:15.612Z,15.98
2023-05-15T18:55:23.793Z,16.10
2023-05-15T18:58:30.283Z,15.96
2023-05-15T19:01:36.512Z,15.81
2023-05-15T19:04:42.888Z,15.68
2023-05-15T19:07:49.514Z,15.33
2023-05-15T19:10:57.808Z,15.35
2023-05-15T19:14:05.267Z,15.47
2023-05-15T19:17:11.916Z,15.45
2023-05-15T19:20:18.715Z,15.34
2023-05-15T19:23:25.817Z,15.26
2023-05-15T19:26:34.093Z,15.22
2023-05-15T19:29:42.747Z,15.31
2023-05-15T19:32:48.901Z,15.23
2023-05-15T19:35:55.096Z,15.36
2023-05-15T19:39:01.457Z,15.51
2023-05-15T19:42:09.200Z,15.41
2023-05-15T19:45:15.679Z,15.39
2023-05-15T19:48:21.721Z,14.96
2023-05-15T19:51:28.009Z,14.91
2023-05-15T19:54:34.137Z,14.74
2023-05-15T19:57:42.727Z,14.56
2023-05-15T20:00:50.037Z,14.65
2023-05-15T20:03:56.609Z,14.64
2023-05-15T20:07:06.748Z,14.59
2023-05-15T20:13:40.450Z,14.37
2023-05-15T20:16:46.650Z,14.43
2023-05-15T20:19:54.003Z,14.40
2023-05-15T20:23:00.180Z,14.32
2023-05-15T20:26:06.441Z,14.29
2023-05-15T20:29:14.104Z,14.37
2023-05-15T20:32:20.900Z,14.31
2023-05-15T20:35:28.121Z,14.14
2023-05-15T20:38:35.709Z,14.24
2023-05-15T20:41:41.756Z,14.28
2023-05-15T20:44:49.628Z,14.05
2023-05-15T20:47:55.984Z,14.24
2023-05-15T20:51:01.944Z,14.05
2023-05-15T20:54:08.240Z,14.07
2023-05-15T20:57:14.484Z,14.00
2023-05-15T21:00:22.934Z,13.93
2023-05-15T21:03:30.418Z,13.77
2023-05-15T21:06:37.121Z,14.00
2023-05-15T21:09:43.460Z,13.84
2023-05-15T21:12:49.454Z,13.93
2023-05-15T21:15:57.036Z,13.95
2023-05-15T21:19:03.196Z,13.85
2023-05-15T21:22:09.791Z,13.79
2023-05-15T21:25:16.442Z,13.77
2023-05-15T21:28:22.439Z,13.88
2023-05-15T21:31:30.125Z,13.88
2023-05-15T21:34:36.615Z,13.85
2023-05-15T21:37:42.743Z,13.74
2023-05-15T21:40:48.744Z,13.89
2023-05-15T21:43:55.099Z,13.81
2023-05-15T21:47:05.852Z,13.70
2023-05-15T21:50:12.350Z,13.74
2023-05-15T21:53:18.750Z,13.71
2023-05-15T21:56:24.769Z,13.48
2023-05-15T21:59:30.683Z,13.45
2023-05-15T22:02:38.418Z,13.54
2023-05-15T22:05:44.882Z,13.65
2023-05-15T22:08:50.797Z,13.55
2023-05-15T22:11:56.771Z,13.46
2023-05-15T22:15:03.003Z,13.36
2023-05-15T22:18:11.319Z,13.37
2023-05-15T22:21:17.470Z,13.44
2023-05-15T22:24:23.930Z,13.41
2023-05-15T22:27:30.218Z,13.62
2023-05-15T22:30:36.426Z,13.63
2023-05-15T22:33:44.054Z,13.41
2023-05-15T22:36:50.436Z,13.47
2023-05-15T22:39:56.408Z,13.34
2023-05-15T22:43:02.508Z,13.19
2023-05-15T22:46:08.830Z,13.26
2023-05-15T22:49:19.371Z,13.22
2023-05-15T22:52:25.470Z,13.21
2023-05-15T22:55:31.682Z,13.20
2023-05-15T22:58:37.574Z,13.06
2023-05-15T23:01:43.721Z,12.95
2023-05-15T23:04:51.181Z,12.68
2023-05-15T23:07:57.609Z,12.83
2023-05-15T23:11:03.834Z,12.66
2023-05-15T23:14:12.168Z,12.57
2023-05-15T23:17:18.477Z,12.71
2023-05-15T23:20:26.428Z,12.46
2023-05-15T23:23:32.672Z,12.54
2023-05-15T23:26:39.183Z,12.52
2023-05-15T23:29:45.339Z,12.65
2023-05-15T23:32:51.831Z,12.69
2023-05-15T23:35:59.444Z,12.63
2023-05-15T23:39:06.194Z,12.67
2023-05-15T23:42:12.612Z,12.58
2023-05-15T23:45:18.979Z,12.56
2023-05-15T23:48:24.960Z,12.59
2023-05-15T23:51:32.825Z,12.56
2023-05-15T23:54:39.058Z,12.62
2023-05-15T23:57:46.968Z,12.38
